sensor_id;sensor_type;location;lat;lon;timestamp;temperature;humidity
5834;DHT22;2943;48.012;10.968;2024-02-15T00:01:01;8.50;99.90
5834;DHT22;2943;48.012;10.968;2024-02-15T00:03:29;8.50;99.90
5834;DHT22;2943;48.012;10.968;2024-02-15T00:05:57;8.50;99.90
5834;DHT22;2943;48.012;10.968;2024-02-15T00:08:24;8.50;99.90
5834;DHT22;2943;48.012;10.968;2024-02-15T00:10:53;8.50;99.90
5834;DHT22;2943;48.012;10.968;2024-02-15T00:13:20;8.40;99.90
5834;DHT22;2943;48.012;10.968;2024-02-15T00:15:48;8.40;99.90
5834;DHT22;2943;48.012;10.968;2024-02-15T00:18:15;8.40;99.90
5834;DHT22;2943;48.012;10.968;2024-02-15T00:20:42;8.40;99.90
5834;DHT22;2943;48.012;10.968;2024-02-15T00:23:09;8.40;99.90
5834;DHT22;2943;48.012;10.968;2024-02-15T00:25:36;8.20;99.90
5834;DHT22;2943;48.012;10.968;2024-02-15T00:28:05;8.20;99.90
5834;DHT22;2943;48.012;10.968;2024-02-15T00:30:33;8.10;99.90
5834;DHT22;2943;48.012;10.968;2024-02-15T00:32:59;8.00;99.90
5834;DHT22;2943;48.012;10.968;2024-02-15T00:35:28;7.90;99.90
5834;DHT22;2943;48.012;10.968;2024-02-15T00:37:55;7.80;99.90
5834;DHT22;2943;48.012;10.968;2024-02-15T00:40:22;7.80;99.90
5834;DHT22;2943;48.012;10.968;2024-02-15T00:42:49;7.70;99.90
5834;DHT22;2943;48.012;10.968;2024-02-15T00:45:18;7.60;99.90
5834;DHT22;2943;48.012;10.968;2024-02-15T00:47:45;7.60;99.90
5834;DHT22;2943;48.012;10.968;2024-02-15T00:50:12;7.60;99.90
5834;DHT22;2943;48.012;10.968;2024-02-15T00:52:39;7.50;99.90
5834;DHT22;2943;48.012;10.968;2024-02-15T00:55:06;7.50;99.90
5834;DHT22;2943;48.012;10.968;2024-02-15T00:57:34;7.50;99.90
5834;DHT22;2943;48.012;10.968;2024-02-15T01:00:01;7.50;99.90
5834;DHT22;2943;48.012;10.968;2024-02-15T01:02:30;7.50;99.90
5834;DHT22;2943;48.012;10.968;2024-02-15T01:04:57;7.60;99.90
5834;DHT22;2943;48.012;10.968;2024-02-15T01:07:24;7.50;99.90
5834;DHT22;2943;48.012;10.968;2024-02-15T01:09:53;7.50;99.90
5834;DHT22;2943;48.012;10.968;2024-02-15T01:12:20;7.50;99.90
5834;DHT22;2943;48.012;10.968;2024-02-15T01:14:47;7.50;99.90
5834;DHT22;2943;48.012;10.968;2024-02-15T01:17:14;7.50;99.90
5834;DHT22;2943;48.012;10.968;2024-02-15T01:19:42;7.50;99.90
5834;DHT22;2943;48.012;10.968;2024-02-15T01:22:09;7.50;99.90
5834;DHT22;2943;48.012;10.968;2024-02-15T01:24:36;7.50;99.90
5834;DHT22;2943;48.012;10.968;2024-02-15T01:27:04;7.40;99.90
5834;DHT22;2943;48.012;10.968;2024-02-15T01:29:32;7.40;99.90
5834;DHT22;2943;48.012;10.968;2024-02-15T01:32:00;7.40;99.90
5834;DHT22;2943;48.012;10.968;2024-02-15T01:34:27;7.40;99.90
5834;DHT22;2943;48.012;10.968;2024-02-15T01:36:55;7.30;99.90
5834;DHT22;2943;48.012;10.968;2024-02-15T01:39:22;7.30;99.90
5834;DHT22;2943;48.012;10.968;2024-02-15T01:41:49;7.30;99.90
5834;DHT22;2943;48.012;10.968;2024-02-15T01:44:17;7.30;99.90
5834;DHT22;2943;48.012;10.968;2024-02-15T01:46:47;7.30;99.90
5834;DHT22;2943;48.012;10.968;2024-02-15T01:49:15;7.30;99.90
5834;DHT22;2943;48.012;10.968;2024-02-15T01:51:42;7.30;99.90
5834;DHT22;2943;48.012;10.968;2024-02-15T01:54:13;7.40;99.90
5834;DHT22;2943;48.012;10.968;2024-02-15T01:56:43;7.30;99.90
5834;DHT22;2943;48.012;10.968;2024-02-15T01:59:10;7.30;99.90
5834;DHT22;2943;48.012;10.968;2024-02-15T02:01:39;7.40;99.90
5834;DHT22;2943;48.012;10.968;2024-02-15T02:04:06;7.40;99.90
5834;DHT22;2943;48.012;10.968;2024-02-15T02:06:33;7.30;99.90
5834;DHT22;2943;48.012;10.968;2024-02-15T02:09:00;7.30;99.90
5834;DHT22;2943;48.012;10.968;2024-02-15T02:11:29;7.30;99.90
5834;DHT22;2943;48.012;10.968;2024-02-15T02:13:56;7.30;99.90
5834;DHT22;2943;48.012;10.968;2024-02-15T02:16:27;7.30;99.90
5834;DHT22;2943;48.012;10.968;2024-02-15T02:18:55;7.30;99.90
5834;DHT22;2943;48.012;10.968;2024-02-15T02:21:23;7.30;99.90
5834;DHT22;2943;48.012;10.968;2024-02-15T02:23:53;7.30;99.90
5834;DHT22;2943;48.012;10.968;2024-02-15T02:26:22;7.30;99.90
5834;DHT22;2943;48.012;10.968;2024-02-15T02:28:50;7.20;99.90
5834;DHT22;2943;48.012;10.968;2024-02-15T02:31:19;7.20;99.90
5834;DHT22;2943;48.012;10.968;2024-02-15T02:33:48;7.20;99.90
5834;DHT22;2943;48.012;10.968;2024-02-15T02:36:17;7.20;99.90
5834;DHT22;2943;48.012;10.968;2024-02-15T02:38:44;7.20;99.90
5834;DHT22;2943;48.012;10.968;2024-02-15T02:41:11;7.20;99.90
5834;DHT22;2943;48.012;10.968;2024-02-15T02:43:43;7.10;99.90
5834;DHT22;2943;48.012;10.968;2024-02-15T02:46:10;7.10;99.90
5834;DHT22;2943;48.012;10.968;2024-02-15T02:48:37;7.10;99.90
5834;DHT22;2943;48.012;10.968;2024-02-15T02:51:05;7.10;99.90
5834;DHT22;2943;48.012;10.968;2024-02-15T02:53:32;7.10;99.90
5834;DHT22;2943;48.012;10.968;2024-02-15T02:55:59;7.00;99.90
5834;DHT22;2943;48.012;10.968;2024-02-15T02:58:26;7.00;99.90
5834;DHT22;2943;48.012;10.968;2024-02-15T03:00:56;7.00;99.90
5834;DHT22;2943;48.012;10.968;2024-02-15T03:03:26;7.00;99.90
5834;DHT22;2943;48.012;10.968;2024-02-15T03:05:53;7.00;99.90
5834;DHT22;2943;48.012;10.968;2024-02-15T03:08:20;6.90;99.90
5834;DHT22;2943;48.012;10.968;2024-02-15T03:10:48;6.90;99.90
5834;DHT22;2943;48.012;10.968;2024-02-15T03:13:15;6.90;99.90
5834;DHT22;2943;48.012;10.968;2024-02-15T03:15:45;6.90;99.90
5834;DHT22;2943;48.012;10.968;2024-02-15T03:18:14;6.80;99.90
5834;DHT22;2943;48.012;10.968;2024-02-15T03:20:41;6.80;99.90
5834;DHT22;2943;48.012;10.968;2024-02-15T03:23:09;6.80;99.90
5834;DHT22;2943;48.012;10.968;2024-02-15T03:25:36;6.80;99.90
5834;DHT22;2943;48.012;10.968;2024-02-15T03:28:04;6.70;99.90
5834;DHT22;2943;48.012;10.968;2024-02-15T03:30:32;6.70;99.90
5834;DHT22;2943;48.012;10.968;2024-02-15T03:33:00;6.70;99.90
5834;DHT22;2943;48.012;10.968;2024-02-15T03:35:32;6.70;99.90
5834;DHT22;2943;48.012;10.968;2024-02-15T03:37:59;6.70;99.90
5834;DHT22;2943;48.012;10.968;2024-02-15T03:40:26;6.60;99.90
5834;DHT22;2943;48.012;10.968;2024-02-15T03:42:54;6.70;99.90
5834;DHT22;2943;48.012;10.968;2024-02-15T03:45:22;6.70;99.90
5834;DHT22;2943;48.012;10.968;2024-02-15T03:47:51;6.70;99.90
5834;DHT22;2943;48.012;10.968;2024-02-15T03:50:18;6.70;99.90
5834;DHT22;2943;48.012;10.968;2024-02-15T03:52:48;6.70;99.90
5834;DHT22;2943;48.012;10.968;2024-02-15T03:55:17;6.70;99.90
5834;DHT22;2943;48.012;10.968;2024-02-15T03:57:47;6.70;99.90
5834;DHT22;2943;48.012;10.968;2024-02-15T04:00:15;6.60;99.90
5834;DHT22;2943;48.012;10.968;2024-02-15T04:02:46;6.60;99.90
5834;DHT22;2943;48.012;10.968;2024-02-15T04:05:14;6.60;99.90
5834;DHT22;2943;48.012;10.968;2024-02-15T04:07:41;6.60;99.90
5834;DHT22;2943;48.012;10.968;2024-02-15T04:10:11;6.60;99.90
5834;DHT22;2943;48.012;10.968;2024-02-15T04:12:38;6.60;99.90
5834;DHT22;2943;48.012;10.968;2024-02-15T04:15:08;6.50;99.90
5834;DHT22;2943;48.012;10.968;2024-02-15T04:17:39;6.50;99.90
5834;DHT22;2943;48.012;10.968;2024-02-15T04:20:07;6.50;99.90
5834;DHT22;2943;48.012;10.968;2024-02-15T04:22:34;6.50;99.90
5834;DHT22;2943;48.012;10.968;2024-02-15T04:25:04;6.50;99.90
5834;DHT22;2943;48.012;10.968;2024-02-15T04:27:33;6.40;99.90
5834;DHT22;2943;48.012;10.968;2024-02-15T04:30:00;6.40;99.90
5834;DHT22;2943;48.012;10.968;2024-02-15T04:32:27;6.40;99.90
5834;DHT22;2943;48.012;10.968;2024-02-15T04:34:58;6.30;99.90
5834;DHT22;2943;48.012;10.968;2024-02-15T04:37:25;6.30;99.90
5834;DHT22;2943;48.012;10.968;2024-02-15T04:39:54;6.20;99.90
5834;DHT22;2943;48.012;10.968;2024-02-15T04:42:23;6.20;99.90
5834;DHT22;2943;48.012;10.968;2024-02-15T04:44:53;6.10;99.90
5834;DHT22;2943;48.012;10.968;2024-02-15T04:47:21;6.10;99.90
5834;DHT22;2943;48.012;10.968;2024-02-15T04:49:47;6.10;99.90
5834;DHT22;2943;48.012;10.968;2024-02-15T04:52:14;6.00;99.90
5834;DHT22;2943;48.012;10.968;2024-02-15T04:54:43;6.00;99.90
5834;DHT22;2943;48.012;10.968;2024-02-15T04:57:10;6.00;99.90
5834;DHT22;2943;48.012;10.968;2024-02-15T04:59:37;6.00;99.90
5834;DHT22;2943;48.012;10.968;2024-02-15T05:02:06;6.00;99.90
5834;DHT22;2943;48.012;10.968;2024-02-15T05:04:33;6.00;99.90
5834;DHT22;2943;48.012;10.968;2024-02-15T05:07:03;5.90;99.90
5834;DHT22;2943;48.012;10.968;2024-02-15T05:09:30;5.90;99.90
5834;DHT22;2943;48.012;10.968;2024-02-15T05:12:00;5.90;99.90
5834;DHT22;2943;48.012;10.968;2024-02-15T05:14:27;5.80;99.90
5834;DHT22;2943;48.012;10.968;2024-02-15T05:16:54;5.80;99.90
5834;DHT22;2943;48.012;10.968;2024-02-15T05:19:23;5.60;99.90
5834;DHT22;2943;48.012;10.968;2024-02-15T05:21:50;5.50;99.90
5834;DHT22;2943;48.012;10.968;2024-02-15T05:24:17;5.40;99.90
5834;DHT22;2943;48.012;10.968;2024-02-15T05:26:45;5.30;99.90
5834;DHT22;2943;48.012;10.968;2024-02-15T05:29:14;5.20;99.90
5834;DHT22;2943;48.012;10.968;2024-02-15T05:31:42;5.10;99.90
5834;DHT22;2943;48.012;10.968;2024-02-15T05:34:11;5.00;99.90
5834;DHT22;2943;48.012;10.968;2024-02-15T05:36:39;4.90;99.90
5834;DHT22;2943;48.012;10.968;2024-02-15T05:39:07;4.80;99.90
5834;DHT22;2943;48.012;10.968;2024-02-15T05:41:37;4.80;99.90
5834;DHT22;2943;48.012;10.968;2024-02-15T05:44:05;4.70;99.90
5834;DHT22;2943;48.012;10.968;2024-02-15T05:46:33;4.60;99.90
5834;DHT22;2943;48.012;10.968;2024-02-15T05:49:02;4.60;99.90
5834;DHT22;2943;48.012;10.968;2024-02-15T05:51:30;4.50;99.90
5834;DHT22;2943;48.012;10.968;2024-02-15T05:54:00;4.50;99.90
5834;DHT22;2943;48.012;10.968;2024-02-15T05:56:28;4.40;99.90
5834;DHT22;2943;48.012;10.968;2024-02-15T05:58:55;4.40;99.90
5834;DHT22;2943;48.012;10.968;2024-02-15T06:01:23;4.40;99.90
5834;DHT22;2943;48.012;10.968;2024-02-15T06:03:50;4.40;99.90
5834;DHT22;2943;48.012;10.968;2024-02-15T06:06:20;4.40;99.90
5834;DHT22;2943;48.012;10.968;2024-02-15T06:08:47;4.40;99.90
5834;DHT22;2943;48.012;10.968;2024-02-15T06:11:19;4.40;99.90
5834;DHT22;2943;48.012;10.968;2024-02-15T06:13:46;4.40;99.90
5834;DHT22;2943;48.012;10.968;2024-02-15T06:16:13;4.40;99.90
5834;DHT22;2943;48.012;10.968;2024-02-15T06:18:40;4.40;99.90
5834;DHT22;2943;48.012;10.968;2024-02-15T06:21:07;4.40;99.90
5834;DHT22;2943;48.012;10.968;2024-02-15T06:23:34;4.40;99.90
5834;DHT22;2943;48.012;10.968;2024-02-15T06:26:01;4.40;99.90
5834;DHT22;2943;48.012;10.968;2024-02-15T06:28:30;4.40;99.90
5834;DHT22;2943;48.012;10.968;2024-02-15T06:31:14;4.40;99.90
5834;DHT22;2943;48.012;10.968;2024-02-15T06:33:58;4.40;99.90
5834;DHT22;2943;48.012;10.968;2024-02-15T06:36:45;4.40;99.90
5834;DHT22;2943;48.012;10.968;2024-02-15T06:39:30;4.40;99.90
5834;DHT22;2943;48.012;10.968;2024-02-15T06:42:07;4.40;99.90
5834;DHT22;2943;48.012;10.968;2024-02-15T06:44:36;4.40;99.90
5834;DHT22;2943;48.012;10.968;2024-02-15T06:47:04;4.40;99.90
5834;DHT22;2943;48.012;10.968;2024-02-15T06:49:32;4.40;99.90
5834;DHT22;2943;48.012;10.968;2024-02-15T06:52:00;4.40;99.90
5834;DHT22;2943;48.012;10.968;2024-02-15T06:54:27;4.30;99.90
5834;DHT22;2943;48.012;10.968;2024-02-15T06:56:54;4.30;99.90
5834;DHT22;2943;48.012;10.968;2024-02-15T06:59:22;4.30;99.90
5834;DHT22;2943;48.012;10.968;2024-02-15T07:01:50;4.30;99.90
5834;DHT22;2943;48.012;10.968;2024-02-15T07:04:18;4.30;99.90
5834;DHT22;2943;48.012;10.968;2024-02-15T07:06:46;4.30;99.90
5834;DHT22;2943;48.012;10.968;2024-02-15T07:09:14;4.30;99.90
5834;DHT22;2943;48.012;10.968;2024-02-15T07:11:43;4.30;99.90
5834;DHT22;2943;48.012;10.968;2024-02-15T07:14:11;4.30;99.90
5834;DHT22;2943;48.012;10.968;2024-02-15T07:16:38;4.30;99.90
5834;DHT22;2943;48.012;10.968;2024-02-15T07:19:07;4.40;99.90
5834;DHT22;2943;48.012;10.968;2024-02-15T07:21:34;4.30;99.90
5834;DHT22;2943;48.012;10.968;2024-02-15T07:24:03;4.40;99.90
5834;DHT22;2943;48.012;10.968;2024-02-15T07:26:30;4.40;99.90
5834;DHT22;2943;48.012;10.968;2024-02-15T07:28:58;4.40;99.90
5834;DHT22;2943;48.012;10.968;2024-02-15T07:31:28;4.40;99.90
5834;DHT22;2943;48.012;10.968;2024-02-15T07:33:56;4.50;99.90
5834;DHT22;2943;48.012;10.968;2024-02-15T07:36:24;4.50;99.90
5834;DHT22;2943;48.012;10.968;2024-02-15T07:38:52;4.50;99.90
5834;DHT22;2943;48.012;10.968;2024-02-15T07:41:20;4.60;99.90
5834;DHT22;2943;48.012;10.968;2024-02-15T07:43:47;4.60;99.90
5834;DHT22;2943;48.012;10.968;2024-02-15T07:46:15;4.60;99.90
5834;DHT22;2943;48.012;10.968;2024-02-15T07:48:42;4.60;99.90
5834;DHT22;2943;48.012;10.968;2024-02-15T07:51:12;4.70;99.90
5834;DHT22;2943;48.012;10.968;2024-02-15T07:53:41;4.70;99.90
5834;DHT22;2943;48.012;10.968;2024-02-15T07:56:09;4.80;99.90
5834;DHT22;2943;48.012;10.968;2024-02-15T07:58:38;4.90;99.90
5834;DHT22;2943;48.012;10.968;2024-02-15T08:01:09;4.90;99.90
5834;DHT22;2943;48.012;10.968;2024-02-15T08:03:38;5.00;99.90
5834;DHT22;2943;48.012;10.968;2024-02-15T08:06:10;5.10;99.90
5834;DHT22;2943;48.012;10.968;2024-02-15T08:08:38;5.10;99.90
5834;DHT22;2943;48.012;10.968;2024-02-15T08:11:08;5.20;99.90
5834;DHT22;2943;48.012;10.968;2024-02-15T08:13:41;5.20;99.90
5834;DHT22;2943;48.012;10.968;2024-02-15T08:16:08;5.30;99.90
5834;DHT22;2943;48.012;10.968;2024-02-15T08:18:35;5.40;99.90
5834;DHT22;2943;48.012;10.968;2024-02-15T08:21:03;5.40;99.90
5834;DHT22;2943;48.012;10.968;2024-02-15T08:23:30;5.50;99.90
5834;DHT22;2943;48.012;10.968;2024-02-15T08:25:57;5.60;99.90
5834;DHT22;2943;48.012;10.968;2024-02-15T08:28:26;5.60;99.90
5834;DHT22;2943;48.012;10.968;2024-02-15T08:30:54;5.70;99.90
5834;DHT22;2943;48.012;10.968;2024-02-15T08:33:22;5.80;99.90
5834;DHT22;2943;48.012;10.968;2024-02-15T08:35:49;5.80;99.90
5834;DHT22;2943;48.012;10.968;2024-02-15T08:38:20;5.90;99.90
5834;DHT22;2943;48.012;10.968;2024-02-15T08:40:47;6.00;99.90
5834;DHT22;2943;48.012;10.968;2024-02-15T08:43:14;6.10;99.90
5834;DHT22;2943;48.012;10.968;2024-02-15T08:45:44;6.20;99.90
5834;DHT22;2943;48.012;10.968;2024-02-15T08:48:12;6.30;99.90
5834;DHT22;2943;48.012;10.968;2024-02-15T08:50:39;6.30;99.90
5834;DHT22;2943;48.012;10.968;2024-02-15T08:53:07;6.40;99.90
5834;DHT22;2943;48.012;10.968;2024-02-15T08:55:34;6.50;99.90
5834;DHT22;2943;48.012;10.968;2024-02-15T08:58:03;6.60;99.90
5834;DHT22;2943;48.012;10.968;2024-02-15T09:00:30;6.70;99.90
5834;DHT22;2943;48.012;10.968;2024-02-15T09:02:59;6.80;99.90
5834;DHT22;2943;48.012;10.968;2024-02-15T09:05:26;6.90;99.90
5834;DHT22;2943;48.012;10.968;2024-02-15T09:07:54;7.00;99.90
5834;DHT22;2943;48.012;10.968;2024-02-15T09:10:21;7.10;99.90
5834;DHT22;2943;48.012;10.968;2024-02-15T09:12:49;7.20;99.90
5834;DHT22;2943;48.012;10.968;2024-02-15T09:15:18;7.20;99.90
5834;DHT22;2943;48.012;10.968;2024-02-15T09:17:48;7.30;99.90
5834;DHT22;2943;48.012;10.968;2024-02-15T09:20:17;7.40;99.90
5834;DHT22;2943;48.012;10.968;2024-02-15T09:22:47;7.50;99.90
5834;DHT22;2943;48.012;10.968;2024-02-15T09:25:14;7.60;99.90
5834;DHT22;2943;48.012;10.968;2024-02-15T09:27:42;7.70;99.90
5834;DHT22;2943;48.012;10.968;2024-02-15T09:30:10;7.90;99.90
5834;DHT22;2943;48.012;10.968;2024-02-15T09:32:37;8.00;99.90
5834;DHT22;2943;48.012;10.968;2024-02-15T09:35:05;8.10;99.90
5834;DHT22;2943;48.012;10.968;2024-02-15T09:37:35;8.20;99.90
5834;DHT22;2943;48.012;10.968;2024-02-15T09:40:07;8.30;99.90
5834;DHT22;2943;48.012;10.968;2024-02-15T09:42:36;8.40;99.90
5834;DHT22;2943;48.012;10.968;2024-02-15T09:45:05;8.50;99.90
5834;DHT22;2943;48.012;10.968;2024-02-15T09:47:35;8.60;99.90
5834;DHT22;2943;48.012;10.968;2024-02-15T09:50:02;8.70;99.90
5834;DHT22;2943;48.012;10.968;2024-02-15T09:52:31;8.80;99.90
5834;DHT22;2943;48.012;10.968;2024-02-15T09:55:03;9.00;99.90
5834;DHT22;2943;48.012;10.968;2024-02-15T09:57:30;9.00;99.90
5834;DHT22;2943;48.012;10.968;2024-02-15T10:00:01;9.10;99.90
5834;DHT22;2943;48.012;10.968;2024-02-15T10:02:29;9.10;99.90
5834;DHT22;2943;48.012;10.968;2024-02-15T10:04:58;9.20;99.90
5834;DHT22;2943;48.012;10.968;2024-02-15T10:07:24;9.30;99.90
5834;DHT22;2943;48.012;10.968;2024-02-15T10:09:52;9.40;99.90
5834;DHT22;2943;48.012;10.968;2024-02-15T10:12:22;9.50;99.90
5834;DHT22;2943;48.012;10.968;2024-02-15T10:14:52;9.60;99.90
5834;DHT22;2943;48.012;10.968;2024-02-15T10:17:19;9.60;99.90
5834;DHT22;2943;48.012;10.968;2024-02-15T10:20:03;9.70;99.90
5834;DHT22;2943;48.012;10.968;2024-02-15T10:22:30;9.80;99.90
5834;DHT22;2943;48.012;10.968;2024-02-15T10:25:10;9.90;99.90
5834;DHT22;2943;48.012;10.968;2024-02-15T10:27:39;10.00;99.90
5834;DHT22;2943;48.012;10.968;2024-02-15T10:30:19;10.10;99.90
5834;DHT22;2943;48.012;10.968;2024-02-15T10:32:46;10.10;99.90
5834;DHT22;2943;48.012;10.968;2024-02-15T10:35:21;10.30;99.90
5834;DHT22;2943;48.012;10.968;2024-02-15T10:37:49;10.40;99.90
5834;DHT22;2943;48.012;10.968;2024-02-15T10:40:20;10.50;99.90
5834;DHT22;2943;48.012;10.968;2024-02-15T10:42:50;10.60;99.90
5834;DHT22;2943;48.012;10.968;2024-02-15T10:45:19;10.70;99.90
5834;DHT22;2943;48.012;10.968;2024-02-15T10:47:47;10.80;99.90
5834;DHT22;2943;48.012;10.968;2024-02-15T10:50:14;10.90;99.90
5834;DHT22;2943;48.012;10.968;2024-02-15T10:52:48;11.00;99.90
5834;DHT22;2943;48.012;10.968;2024-02-15T10:55:24;11.10;99.90
5834;DHT22;2943;48.012;10.968;2024-02-15T10:57:55;11.20;99.90
5834;DHT22;2943;48.012;10.968;2024-02-15T11:00:24;11.30;99.90
5834;DHT22;2943;48.012;10.968;2024-02-15T11:03:01;11.40;99.90
5834;DHT22;2943;48.012;10.968;2024-02-15T11:05:32;11.50;99.90
5834;DHT22;2943;48.012;10.968;2024-02-15T11:08:02;11.50;99.90
5834;DHT22;2943;48.012;10.968;2024-02-15T11:10:30;11.60;99.90
5834;DHT22;2943;48.012;10.968;2024-02-15T11:12:59;11.60;99.90
5834;DHT22;2943;48.012;10.968;2024-02-15T11:15:41;11.60;99.90
5834;DHT22;2943;48.012;10.968;2024-02-15T11:18:11;11.70;99.90
5834;DHT22;2943;48.012;10.968;2024-02-15T11:20:49;11.80;99.90
5834;DHT22;2943;48.012;10.968;2024-02-15T11:23:27;11.80;99.90
5834;DHT22;2943;48.012;10.968;2024-02-15T11:25:54;11.90;99.90
5834;DHT22;2943;48.012;10.968;2024-02-15T11:28:39;11.90;99.90
5834;DHT22;2943;48.012;10.968;2024-02-15T11:31:10;11.90;99.90
5834;DHT22;2943;48.012;10.968;2024-02-15T11:33:38;12.00;99.90
5834;DHT22;2943;48.012;10.968;2024-02-15T11:36:06;12.00;99.90
5834;DHT22;2943;48.012;10.968;2024-02-15T11:38:34;12.10;99.90
5834;DHT22;2943;48.012;10.968;2024-02-15T11:41:05;12.10;99.90
5834;DHT22;2943;48.012;10.968;2024-02-15T11:43:53;12.20;99.90
5834;DHT22;2943;48.012;10.968;2024-02-15T11:46:24;12.30;99.90
5834;DHT22;2943;48.012;10.968;2024-02-15T11:48:54;12.40;99.90
5834;DHT22;2943;48.012;10.968;2024-02-15T11:51:27;12.50;99.90
5834;DHT22;2943;48.012;10.968;2024-02-15T11:54:05;12.60;99.90
5834;DHT22;2943;48.012;10.968;2024-02-15T11:56:52;12.60;99.90
5834;DHT22;2943;48.012;10.968;2024-02-15T11:59:38;12.60;99.90
5834;DHT22;2943;48.012;10.968;2024-02-15T12:02:19;12.70;99.90
5834;DHT22;2943;48.012;10.968;2024-02-15T12:05:04;12.60;99.90
5834;DHT22;2943;48.012;10.968;2024-02-15T12:07:49;12.70;99.90
5834;DHT22;2943;48.012;10.968;2024-02-15T12:10:33;12.70;99.90
5834;DHT22;2943;48.012;10.968;2024-02-15T12:13:32;12.80;99.90
5834;DHT22;2943;48.012;10.968;2024-02-15T12:16:22;12.90;99.90
5834;DHT22;2943;48.012;10.968;2024-02-15T12:19:07;12.80;99.90
5834;DHT22;2943;48.012;10.968;2024-02-15T12:21:37;12.90;99.90
5834;DHT22;2943;48.012;10.968;2024-02-15T12:24:07;12.90;99.90
5834;DHT22;2943;48.012;10.968;2024-02-15T12:26:35;12.90;99.90
5834;DHT22;2943;48.012;10.968;2024-02-15T12:29:06;13.00;99.90
5834;DHT22;2943;48.012;10.968;2024-02-15T12:31:36;13.00;99.90
5834;DHT22;2943;48.012;10.968;2024-02-15T12:34:06;13.10;99.90
5834;DHT22;2943;48.012;10.968;2024-02-15T12:36:33;13.20;99.90
5834;DHT22;2943;48.012;10.968;2024-02-15T12:39:03;13.20;99.90
5834;DHT22;2943;48.012;10.968;2024-02-15T12:41:38;13.30;99.90
5834;DHT22;2943;48.012;10.968;2024-02-15T12:44:06;13.30;99.90
5834;DHT22;2943;48.012;10.968;2024-02-15T12:46:37;13.30;99.90
5834;DHT22;2943;48.012;10.968;2024-02-15T12:49:12;13.20;99.90
5834;DHT22;2943;48.012;10.968;2024-02-15T12:51:50;13.30;99.90
5834;DHT22;2943;48.012;10.968;2024-02-15T12:54:19;13.20;99.90
5834;DHT22;2943;48.012;10.968;2024-02-15T12:56:48;13.20;99.90
5834;DHT22;2943;48.012;10.968;2024-02-15T12:59:16;13.10;99.90
5834;DHT22;2943;48.012;10.968;2024-02-15T13:01:46;13.10;99.90
5834;DHT22;2943;48.012;10.968;2024-02-15T13:04:22;13.20;99.90
5834;DHT22;2943;48.012;10.968;2024-02-15T13:06:49;13.10;99.90
5834;DHT22;2943;48.012;10.968;2024-02-15T13:09:16;13.00;99.90
5834;DHT22;2943;48.012;10.968;2024-02-15T13:11:44;13.00;99.90
5834;DHT22;2943;48.012;10.968;2024-02-15T13:14:12;12.90;99.90
5834;DHT22;2943;48.012;10.968;2024-02-15T13:16:39;12.90;99.90
5834;DHT22;2943;48.012;10.968;2024-02-15T13:19:09;12.90;99.90
5834;DHT22;2943;48.012;10.968;2024-02-15T13:21:36;12.90;99.90
5834;DHT22;2943;48.012;10.968;2024-02-15T13:24:03;12.80;99.90
5834;DHT22;2943;48.012;10.968;2024-02-15T13:26:31;12.90;99.90
5834;DHT22;2943;48.012;10.968;2024-02-15T13:28:59;12.90;99.90
5834;DHT22;2943;48.012;10.968;2024-02-15T13:31:26;12.90;99.90
5834;DHT22;2943;48.012;10.968;2024-02-15T13:33:53;12.90;99.90
5834;DHT22;2943;48.012;10.968;2024-02-15T13:36:22;12.90;99.90
5834;DHT22;2943;48.012;10.968;2024-02-15T13:38:49;12.90;99.90
5834;DHT22;2943;48.012;10.968;2024-02-15T13:41:17;12.90;99.90
5834;DHT22;2943;48.012;10.968;2024-02-15T13:43:44;13.00;99.90
5834;DHT22;2943;48.012;10.968;2024-02-15T13:46:11;12.90;99.90
5834;DHT22;2943;48.012;10.968;2024-02-15T13:48:39;13.00;99.90
5834;DHT22;2943;48.012;10.968;2024-02-15T13:51:06;13.00;99.90
5834;DHT22;2943;48.012;10.968;2024-02-15T13:53:36;13.00;99.90
5834;DHT22;2943;48.012;10.968;2024-02-15T13:56:03;13.00;99.90
5834;DHT22;2943;48.012;10.968;2024-02-15T13:58:31;13.00;99.90
5834;DHT22;2943;48.012;10.968;2024-02-15T14:00:58;13.00;99.90
5834;DHT22;2943;48.012;10.968;2024-02-15T14:03:30;13.00;99.90
5834;DHT22;2943;48.012;10.968;2024-02-15T14:05:59;12.90;99.90
5834;DHT22;2943;48.012;10.968;2024-02-15T14:08:26;12.90;99.90
5834;DHT22;2943;48.012;10.968;2024-02-15T14:10:55;12.90;99.90
5834;DHT22;2943;48.012;10.968;2024-02-15T14:13:22;12.90;99.90
5834;DHT22;2943;48.012;10.968;2024-02-15T14:15:50;12.90;99.90
5834;DHT22;2943;48.012;10.968;2024-02-15T14:18:18;12.90;99.90
5834;DHT22;2943;48.012;10.968;2024-02-15T14:20:46;13.00;99.90
5834;DHT22;2943;48.012;10.968;2024-02-15T14:23:14;13.00;99.90
5834;DHT22;2943;48.012;10.968;2024-02-15T14:25:41;13.00;99.90
5834;DHT22;2943;48.012;10.968;2024-02-15T14:28:11;13.10;99.90
5834;DHT22;2943;48.012;10.968;2024-02-15T14:30:39;13.10;99.90
5834;DHT22;2943;48.012;10.968;2024-02-15T14:33:24;13.10;99.90
5834;DHT22;2943;48.012;10.968;2024-02-15T14:35:52;13.20;99.90
5834;DHT22;2943;48.012;10.968;2024-02-15T14:38:21;13.20;99.90
5834;DHT22;2943;48.012;10.968;2024-02-15T14:40:49;13.20;99.90
5834;DHT22;2943;48.012;10.968;2024-02-15T14:43:20;13.20;99.90
5834;DHT22;2943;48.012;10.968;2024-02-15T14:45:48;13.20;99.90
5834;DHT22;2943;48.012;10.968;2024-02-15T14:48:15;13.20;99.90
5834;DHT22;2943;48.012;10.968;2024-02-15T14:50:44;13.10;99.90
5834;DHT22;2943;48.012;10.968;2024-02-15T14:53:11;13.10;99.90
5834;DHT22;2943;48.012;10.968;2024-02-15T14:55:39;13.10;99.90
5834;DHT22;2943;48.012;10.968;2024-02-15T14:58:09;13.10;99.90
5834;DHT22;2943;48.012;10.968;2024-02-15T15:00:38;13.00;99.90
5834;DHT22;2943;48.012;10.968;2024-02-15T15:03:07;13.00;99.90
5834;DHT22;2943;48.012;10.968;2024-02-15T15:05:34;13.00;99.90
5834;DHT22;2943;48.012;10.968;2024-02-15T15:08:20;12.90;99.90
5834;DHT22;2943;48.012;10.968;2024-02-15T15:11:05;12.90;99.90
5834;DHT22;2943;48.012;10.968;2024-02-15T15:13:49;12.80;99.90
5834;DHT22;2943;48.012;10.968;2024-02-15T15:16:18;12.70;99.90
5834;DHT22;2943;48.012;10.968;2024-02-15T15:18:46;12.70;99.90
5834;DHT22;2943;48.012;10.968;2024-02-15T15:21:16;12.70;99.90
5834;DHT22;2943;48.012;10.968;2024-02-15T15:23:43;12.70;99.90
5834;DHT22;2943;48.012;10.968;2024-02-15T15:26:10;12.70;99.90
5834;DHT22;2943;48.012;10.968;2024-02-15T15:28:39;12.70;99.90
5834;DHT22;2943;48.012;10.968;2024-02-15T15:31:07;12.70;99.90
5834;DHT22;2943;48.012;10.968;2024-02-15T15:33:36;12.70;99.90
5834;DHT22;2943;48.012;10.968;2024-02-15T15:36:04;12.70;99.90
5834;DHT22;2943;48.012;10.968;2024-02-15T15:38:34;12.70;99.90
5834;DHT22;2943;48.012;10.968;2024-02-15T15:41:02;12.70;99.90
5834;DHT22;2943;48.012;10.968;2024-02-15T15:43:29;12.60;99.90
5834;DHT22;2943;48.012;10.968;2024-02-15T15:46:00;12.70;99.90
5834;DHT22;2943;48.012;10.968;2024-02-15T15:48:28;12.70;99.90
5834;DHT22;2943;48.012;10.968;2024-02-15T15:50:57;12.70;99.90
5834;DHT22;2943;48.012;10.968;2024-02-15T15:53:25;12.70;99.90
5834;DHT22;2943;48.012;10.968;2024-02-15T15:55:53;12.60;99.90
5834;DHT22;2943;48.012;10.968;2024-02-15T15:58:22;12.70;99.90
5834;DHT22;2943;48.012;10.968;2024-02-15T16:00:50;12.60;99.90
5834;DHT22;2943;48.012;10.968;2024-02-15T16:03:17;12.60;99.90
5834;DHT22;2943;48.012;10.968;2024-02-15T16:05:48;12.60;99.90
5834;DHT22;2943;48.012;10.968;2024-02-15T16:08:17;12.50;99.90
5834;DHT22;2943;48.012;10.968;2024-02-15T16:10:43;12.50;99.90